createdAt,value
2023-03-17T06:37:16.718Z,96.40
2023-03-17T07:50:56.396Z,91.00
2023-03-17T09:16:34.466Z,66.50
2023-03-17T09:21:28.963Z,64.80
2023-03-17T09:26:31.638Z,64.80
2023-03-17T09:31:26.109Z,65.20
2023-03-17T09:36:21.645Z,63.40
2023-03-17T09:41:45.273Z,64.20
2023-03-17T09:46:50.270Z,61.50
2023-03-17T09:51:48.066Z,58.40
2023-03-17T09:56:47.867Z,55.80
2023-03-17T10:01:45.039Z,56.40
2023-03-17T10:06:41.664Z,54.70
2023-03-17T10:11:45.232Z,53.90
2023-03-17T10:16:48.562Z,53.00
2023-03-17T10:21:52.063Z,54.30
2023-03-17T10:26:53.814Z,52.70
2023-03-17T10:31:49.056Z,51.80
2023-03-17T10:36:48.969Z,51.20
2023-03-17T10:41:58.483Z,51.00
2023-03-17T10:46:59.640Z,50.60
2023-03-17T10:51:56.617Z,50.60
2023-03-17T10:56:59.200Z,51.90
2023-03-17T11:01:58.053Z,51.00
2023-03-17T11:06:53.714Z,50.50
2023-03-17T11:11:49.631Z,49.30
2023-03-17T11:16:57.621Z,48.90
2023-03-17T11:22:00.406Z,46.90
2023-03-17T11:27:01.686Z,44.00
2023-03-17T11:32:05.669Z,42.80
2023-03-17T11:37:07.396Z,43.60
2023-03-17T11:42:10.484Z,44.10
2023-03-17T11:47:15.223Z,43.00
2023-03-17T11:52:22.227Z,42.60
2023-03-17T11:57:22.275Z,42.30
2023-03-17T12:02:25.258Z,41.50
2023-03-17T12:07:23.952Z,40.10
2023-03-17T12:12:25.487Z,41.20
2023-03-17T12:17:25.835Z,40.30
2023-03-17T12:22:28.757Z,39.20
2023-03-17T12:27:28.366Z,38.80
2023-03-17T12:32:26.423Z,38.70
2023-03-17T12:37:21.751Z,37.70
2023-03-17T12:42:30.751Z,37.20
2023-03-17T12:47:39.243Z,39.20
2023-03-17T12:53:09.825Z,39.40
2023-03-17T12:58:08.257Z,38.60
2023-03-17T13:03:23.979Z,37.90
2023-03-17T13:08:24.272Z,38.90
2023-03-17T13:13:42.085Z,37.40
2023-03-17T13:19:02.097Z,36.60
2023-03-17T13:24:19.889Z,35.90
2023-03-17T13:29:28.892Z,35.00
2023-03-17T13:34:22.684Z,34.80
2023-03-17T13:39:45.390Z,34.80
2023-03-17T13:45:11.554Z,34.20
2023-03-17T13:50:14.291Z,34.20
2023-03-17T13:55:36.675Z,33.00
2023-03-17T14:00:33.518Z,32.30
2023-03-17T14:05:33.220Z,32.70
2023-03-17T14:10:28.676Z,31.90
2023-03-17T14:15:27.806Z,30.10
2023-03-17T14:20:24.636Z,29.60
2023-03-17T14:25:21.780Z,28.90
2023-03-17T14:30:21.082Z,28.10
2023-03-17T14:35:15.258Z,28.20
2023-03-17T14:40:23.540Z,28.00
2023-03-17T14:45:23.618Z,27.50
2023-03-17T14:50:25.381Z,28.10
2023-03-17T14:55:21.025Z,28.20
2023-03-17T15:00:34.063Z,28.10
2023-03-17T15:05:37.529Z,28.80
2023-03-17T15:10:42.814Z,28.70
2023-03-17T15:15:38.828Z,29.50
2023-03-17T15:20:35.550Z,29.10
2023-03-17T15:25:38.485Z,30.00
2023-03-17T15:30:46.239Z,30.40
2023-03-17T15:35:40.957Z,31.00
2023-03-17T15:40:34.635Z,32.10
2023-03-17T15:45:29.652Z,31.50
2023-03-17T15:50:26.533Z,32.10
2023-03-17T15:55:24.472Z,32.50
2023-03-17T16:00:20.217Z,32.60
2023-03-17T16:05:20.776Z,32.00
2023-03-17T16:10:19.692Z,32.30
2023-03-17T16:15:22.843Z,33.50
2023-03-17T16:20:25.060Z,35.00
2023-03-17T16:25:26.300Z,35.70
2023-03-17T16:30:21.968Z,38.20
2023-03-17T16:35:20.835Z,40.40
2023-03-17T16:40:22.718Z,41.40
2023-03-17T16:45:21.816Z,42.40
2023-03-17T16:50:20.985Z,44.00
2023-03-17T16:55:15.157Z,45.20
2023-03-17T17:00:17.126Z,46.10
2023-03-17T17:05:15.796Z,47.40
2023-03-17T17:10:10.978Z,48.80
2023-03-17T17:15:05.056Z,49.80
2023-03-17T17:20:02.205Z,50.20
2023-03-17T17:24:55.786Z,50.60
2023-03-17T17:29:49.261Z,52.10
2023-03-17T17:34:42.918Z,52.70
2023-03-17T17:39:37.961Z,54.90
2023-03-17T17:44:31.643Z,55.20
2023-03-17T17:49:25.526Z,55.40
2023-03-17T17:54:19.088Z,56.40
2023-03-17T17:59:14.741Z,57.00
